Time;durP1;ratioP1;P1;durP2;ratioP2;P2;SDS_P1;SDS_P2;PMS_P1;PMS_P2;Temp;Humidity;BMP_temperature;BMP_pressure;BME280_temperature;BME280_humidity;BME280_pressure;Samples;Min_cycle;Max_cycle;Signal;HPM_P1;HPM_P2
2022/01/28 00:02:45;;;;;;;;;;;1.50;99.90;;;;;;5046568;28;19932;-72
2022/01/28 00:05:17;;;;;;;;;;;1.50;99.90;;;;;;5042501;28;19983;-72
2022/01/28 00:07:43;;;;;;;;;;;1.40;99.90;;;;;;5042917;28;19921;-72
2022/01/28 00:10:10;;;;;;;;;;;1.40;99.90;;;;;;5043068;28;19921;-72
2022/01/28 00:12:48;;;;;;;;;;;1.40;99.90;;;;;;5042942;28;19921;-72
2022/01/28 00:15:22;;;;;;;;;;;1.40;99.90;;;;;;5041943;28;19922;-72
2022/01/28 00:18:24;;;;;;;;;;;1.30;99.90;;;;;;5042830;28;19936;-72
2022/01/28 00:38:01;;;;;;;;;;;1.40;99.90;;;;;;5042898;28;19923;-72
2022/01/28 00:40:29;;;;;;;;;;;1.40;99.90;;;;;;5042081;28;19921;-72
2022/01/28 00:42:55;;;;;;;;;;;1.40;99.90;;;;;;5042961;28;20209;-72
2022/01/28 00:45:23;;;;;;;;;;;1.50;99.90;;;;;;5045655;28;19928;-72
2022/01/28 00:47:50;;;;;;;;;;;1.50;99.90;;;;;;5046423;28;19921;-72
2022/01/28 00:50:17;;;;;;;;;;;1.50;99.90;;;;;;5046049;28;19944;-72
2022/01/28 00:52:43;;;;;;;;;;;1.50;99.90;;;;;;5046432;28;19921;-72
2022/01/28 00:55:10;;;;;;;;;;;1.60;99.90;;;;;;5045031;28;19926;-72
2022/01/28 00:57:37;;;;;;;;;;;1.50;99.90;;;;;;5046168;28;20205;-72
2022/01/28 01:00:04;;;;;;;;;;;1.60;99.90;;;;;;5046195;28;19967;-72
2022/01/28 01:02:32;;;;;;;;;;;1.60;99.90;;;;;;5046237;28;19921;-72
2022/01/28 01:04:58;;;;;;;;;;;1.60;99.90;;;;;;5045688;28;19921;-72
2022/01/28 01:07:25;;;;;;;;;;;1.60;99.90;;;;;;5045634;28;20120;-72
2022/01/28 01:09:51;;;;;;;;;;;1.60;99.90;;;;;;5045844;28;19940;-72
2022/01/28 01:12:20;;;;;;;;;;;1.60;99.90;;;;;;5046075;28;19928;-72
2022/01/28 01:14:47;;;;;;;;;;;1.60;99.90;;;;;;5045151;28;19956;-72
2022/01/28 01:17:25;;;;;;;;;;;1.60;99.90;;;;;;5045903;28;19921;-72
2022/01/28 01:20:06;;;;;;;;;;;1.70;99.90;;;;;;5045782;28;19921;-72
2022/01/28 01:22:37;;;;;;;;;;;1.70;99.90;;;;;;5045010;28;20209;-72
2022/01/28 01:25:14;;;;;;;;;;;1.70;99.90;;;;;;5045636;28;19963;-72
2022/01/28 01:27:40;;;;;;;;;;;1.70;99.90;;;;;;5045595;28;19928;-72
2022/01/28 01:30:07;;;;;;;;;;;1.70;99.90;;;;;;5045718;28;19984;-72
2022/01/28 01:32:34;;;;;;;;;;;1.70;99.90;;;;;;5045271;28;19921;-72
2022/01/28 01:35:02;;;;;;;;;;;1.70;99.90;;;;;;5044965;28;20124;-72
2022/01/28 01:37:29;;;;;;;;;;;1.70;99.90;;;;;;5045563;28;19925;-72
2022/01/28 01:39:56;;;;;;;;;;;1.70;99.90;;;;;;5045382;28;19928;-72
2022/01/28 01:42:31;;;;;;;;;;;1.70;99.90;;;;;;5045404;28;19927;-72
2022/01/28 01:53:25;;;;;;;;;;;1.60;99.90;;;;;;5045231;28;19989;-72
2022/01/28 01:55:52;;;;;;;;;;;1.60;99.90;;;;;;5043988;28;19927;-72
2022/01/28 01:58:24;;;;;;;;;;;1.70;99.90;;;;;;5044969;28;19921;-72
2022/01/28 02:00:51;;;;;;;;;;;1.70;99.90;;;;;;5045008;28;19944;-72
2022/01/28 02:03:17;;;;;;;;;;;1.70;99.90;;;;;;5044911;28;20102;-72
2022/01/28 02:05:45;;;;;;;;;;;1.70;99.90;;;;;;5044663;28;19921;-72
2022/01/28 02:08:12;;;;;;;;;;;1.70;99.90;;;;;;5044717;28;19928;-72
2022/01/28 02:10:39;;;;;;;;;;;1.70;99.90;;;;;;5044665;28;19922;-72
2022/01/28 02:13:05;;;;;;;;;;;1.70;99.90;;;;;;5044831;28;19989;-72
2022/01/28 02:15:32;;;;;;;;;;;1.70;99.90;;;;;;5044435;28;19928;-72
2022/01/28 02:17:59;;;;;;;;;;;1.70;99.90;;;;;;5044067;28;19936;-72
2022/01/28 02:20:31;;;;;;;;;;;1.70;99.90;;;;;;5044239;28;19983;-72
2022/01/28 02:22:58;;;;;;;;;;;1.70;99.90;;;;;;5044681;28;20208;-72
2022/01/28 02:25:27;;;;;;;;;;;1.70;99.90;;;;;;5044283;28;19921;-72
2022/01/28 02:27:54;;;;;;;;;;;1.70;99.90;;;;;;5044544;28;19928;-72
2022/01/28 02:30:21;;;;;;;;;;;1.70;99.90;;;;;;5044343;28;19924;-72
2022/01/28 02:32:49;;;;;;;;;;;1.70;99.90;;;;;;5044468;28;20120;-72
2022/01/28 02:35:16;;;;;;;;;;;1.70;99.90;;;;;;5044190;28;19933;-72
2022/01/28 02:37:44;;;;;;;;;;;1.70;99.90;;;;;;5044338;28;19928;-72
2022/01/28 02:40:11;;;;;;;;;;;1.70;99.90;;;;;;5043463;28;19921;-72
2022/01/28 02:42:52;;;;;;;;;;;1.70;99.90;;;;;;5043303;28;19935;-72
2022/01/28 02:45:26;;;;;;;;;;;1.70;99.90;;;;;;5043303;28;19922;-72
2022/01/28 02:47:58;;;;;;;;;;;1.70;99.90;;;;;;5044233;28;19920;-72
2022/01/28 02:50:27;;;;;;;;;;;1.70;99.90;;;;;;5043974;28;20112;-72
2022/01/28 02:53:06;;;;;;;;;;;1.70;99.90;;;;;;5043936;28;20112;-72
2022/01/28 02:55:37;;;;;;;;;;;1.70;99.90;;;;;;5043532;28;19956;-72
2022/01/28 02:58:16;;;;;;;;;;;1.70;99.90;;;;;;5043583;28;19927;-72
2022/01/28 03:00:43;;;;;;;;;;;1.70;99.90;;;;;;5044124;28;20132;-72
2022/01/28 03:03:10;;;;;;;;;;;1.80;99.90;;;;;;5043897;28;19921;-72
2022/01/28 03:05:36;;;;;;;;;;;1.80;99.90;;;;;;5043443;28;20212;-72
2022/01/28 03:08:05;;;;;;;;;;;1.80;99.90;;;;;;5042980;28;20231;-72
2022/01/28 03:10:42;;;;;;;;;;;1.90;99.90;;;;;;5043010;28;19956;-72
2022/01/28 03:13:29;;;;;;;;;;;1.80;99.90;;;;;;5043274;28;20101;-72
2022/01/28 03:16:06;;;;;;;;;;;1.80;99.90;;;;;;5043558;28;19921;-72
2022/01/28 03:18:42;;;;;;;;;;;1.80;99.90;;;;;;5043621;28;19944;-72
2022/01/28 03:21:20;;;;;;;;;;;1.80;99.90;;;;;;5043407;28;19983;-72
2022/01/28 03:23:48;;;;;;;;;;;1.70;99.90;;;;;;5043095;28;19967;-72
2022/01/28 03:26:15;;;;;;;;;;;1.70;99.90;;;;;;5043694;28;19928;-72
2022/01/28 03:28:42;;;;;;;;;;;1.60;99.90;;;;;;5043444;28;19921;-72
2022/01/28 03:31:08;;;;;;;;;;;1.60;99.90;;;;;;5043439;28;19963;-72
2022/01/28 03:33:35;;;;;;;;;;;1.60;99.90;;;;;;5042861;28;20236;-72
2022/01/28 03:36:03;;;;;;;;;;;1.50;99.90;;;;;;5043389;28;20117;-72
2022/01/28 03:38:30;;;;;;;;;;;1.50;99.90;;;;;;5043490;28;19928;-72
2022/01/28 03:40:58;;;;;;;;;;;1.50;99.90;;;;;;5043243;28;19928;-72
2022/01/28 03:43:25;;;;;;;;;;;1.50;99.90;;;;;;5043293;28;19921;-72
2022/01/28 03:45:51;;;;;;;;;;;1.50;99.90;;;;;;5042311;28;19928;-72
2022/01/28 03:48:18;;;;;;;;;;;1.50;99.90;;;;;;5043542;28;19929;-72
2022/01/28 03:50:44;;;;;;;;;;;1.50;99.90;;;;;;5043368;28;19927;-72
2022/01/28 03:53:11;;;;;;;;;;;1.50;99.90;;;;;;5043175;28;19929;-72
2022/01/28 03:55:37;;;;;;;;;;;1.60;99.90;;;;;;5042179;28;19924;-72
2022/01/28 03:58:05;;;;;;;;;;;1.60;99.90;;;;;;5042920;28;19928;-72
2022/01/28 04:00:32;;;;;;;;;;;1.60;99.90;;;;;;5043222;28;19921;-72
2022/01/28 04:03:06;;;;;;;;;;;1.60;99.90;;;;;;5043171;28;19984;-72
2022/01/28 04:11:24;;;;;;;;;;;1.60;99.90;;;;;;5042896;28;19921;-72
2022/01/28 04:11:29;;;;;;;;;;;1.60;99.90;;;;;;5043091;28;19974;-72
2022/01/28 04:14:00;;;;;;;;;;;1.60;99.90;;;;;;5042621;28;19953;-72
2022/01/28 04:16:34;;;;;;;;;;;1.60;99.90;;;;;;5043014;28;20224;-72
2022/01/28 04:19:03;;;;;;;;;;;1.60;99.90;;;;;;5045689;28;19921;-72
2022/01/28 04:21:30;;;;;;;;;;;1.60;99.90;;;;;;5046682;28;20331;-72
2022/01/28 04:23:56;;;;;;;;;;;1.70;99.90;;;;;;5046855;28;20144;-72
2022/01/28 04:26:23;;;;;;;;;;;1.60;99.90;;;;;;5046672;28;19932;-72
2022/01/28 04:28:50;;;;;;;;;;;1.60;99.90;;;;;;5046594;28;20239;-72
2022/01/28 04:31:17;;;;;;;;;;;1.60;99.90;;;;;;5046475;28;19921;-73
2022/01/28 04:33:44;;;;;;;;;;;1.60;99.90;;;;;;5046301;28;19928;-72
2022/01/28 04:36:13;;;;;;;;;;;1.60;99.90;;;;;;5046412;28;20000;-72
2022/01/28 04:38:47;;;;;;;;;;;1.60;99.90;;;;;;5046708;28;20124;-72
2022/01/28 04:41:20;;;;;;;;;;;1.60;99.90;;;;;;5046062;28;19921;-72
2022/01/28 04:43:52;;;;;;;;;;;1.60;99.90;;;;;;5046276;28;19951;-72
2022/01/28 04:46:29;;;;;;;;;;;1.60;99.90;;;;;;5046140;28;19921;-72
2022/01/28 04:49:02;;;;;;;;;;;1.60;99.90;;;;;;5046635;28;19960;-72
2022/01/28 04:51:46;;;;;;;;;;;1.60;99.90;;;;;;5046320;28;19921;-72
2022/01/28 04:54:33;;;;;;;;;;;1.60;99.90;;;;;;5044962;28;19928;-72
2022/01/28 04:57:07;;;;;;;;;;;1.60;99.90;;;;;;5044351;28;19929;-72
2022/01/28 04:59:45;;;;;;;;;;;1.70;99.90;;;;;;5046162;28;19922;-72
2022/01/28 05:02:33;;;;;;;;;;;1.60;99.90;;;;;;5045856;28;19928;-72
2022/01/28 05:05:16;;;;;;;;;;;1.60;99.90;;;;;;5045789;28;19921;-72
2022/01/28 05:10:45;;;;;;;;;;;1.70;99.90;;;;;;5045712;28;19921;-72
2022/01/28 05:16:20;;;;;;;;;;;1.70;99.90;;;;;;5045607;28;19980;-72
2022/01/28 05:27:05;;;;;;;;;;;1.70;99.90;;;;;;5026018;28;19972;-73
2022/01/28 05:29:32;;;;;;;;;;;1.70;99.90;;;;;;5025148;28;20090;-72
2022/01/28 05:31:58;;;;;;;;;;;1.70;99.90;;;;;;5025895;28;19921;-72
2022/01/28 05:34:27;;;;;;;;;;;1.70;99.90;;;;;;5025876;28;19928;-72
2022/01/28 05:36:54;;;;;;;;;;;1.70;99.90;;;;;;5026549;28;19929;-72
2022/01/28 05:39:21;;;;;;;;;;;1.70;99.90;;;;;;5026116;28;19921;-72
2022/01/28 05:41:47;;;;;;;;;;;1.70;99.90;;;;;;5045951;28;19920;-72
2022/01/28 05:44:14;;;;;;;;;;;1.70;99.90;;;;;;5056094;28;19928;-72
2022/01/28 05:46:40;;;;;;;;;;;1.80;99.90;;;;;;5065667;28;20094;-72
2022/01/28 05:49:07;;;;;;;;;;;1.70;99.90;;;;;;5062196;28;19929;-71
2022/01/28 05:51:35;;;;;;;;;;;1.80;99.90;;;;;;5052672;28;19933;-73
2022/01/28 05:54:02;;;;;;;;;;;1.80;99.90;;;;;;5054948;28;20239;-72
2022/01/28 05:56:29;;;;;;;;;;;1.80;99.90;;;;;;5052965;28;19928;-72
2022/01/28 05:58:55;;;;;;;;;;;1.80;99.90;;;;;;5053702;28;19927;-72
2022/01/28 06:01:22;;;;;;;;;;;1.80;99.90;;;;;;5049619;28;20112;-72
2022/01/28 06:03:48;;;;;;;;;;;1.80;99.90;;;;;;5044787;28;19944;-72
2022/01/28 06:06:19;;;;;;;;;;;1.80;99.90;;;;;;5045166;28;19925;-72
2022/01/28 06:08:47;;;;;;;;;;;1.80;99.90;;;;;;5044032;28;19921;-72
2022/01/28 06:11:14;;;;;;;;;;;1.80;99.90;;;;;;5028165;28;19982;-74
2022/01/28 06:13:40;;;;;;;;;;;1.80;99.90;;;;;;5031225;28;19925;-71
2022/01/28 06:16:07;;;;;;;;;;;1.80;99.90;;;;;;5044913;28;19921;-71
2022/01/28 06:18:33;;;;;;;;;;;1.80;99.90;;;;;;5045246;28;20108;-72
2022/01/28 06:21:00;;;;;;;;;;;1.80;99.90;;;;;;5043667;28;19928;-72
2022/01/28 06:23:27;;;;;;;;;;;1.80;99.90;;;;;;5044805;28;19929;-72
2022/01/28 06:25:54;;;;;;;;;;;1.80;99.90;;;;;;5043469;28;19921;-72
2022/01/28 06:28:21;;;;;;;;;;;1.80;99.90;;;;;;5043568;28;19921;-71
2022/01/28 06:30:48;;;;;;;;;;;1.80;99.90;;;;;;5044399;28;20096;-75
2022/01/28 06:33:14;;;;;;;;;;;1.80;99.90;;;;;;5044554;28;19921;-72
2022/01/28 06:35:41;;;;;;;;;;;1.80;99.90;;;;;;5044581;28;19921;-73
2022/01/28 06:38:10;;;;;;;;;;;1.70;99.90;;;;;;5043763;28;19921;-74
2022/01/28 06:40:37;;;;;;;;;;;1.80;99.90;;;;;;5043917;28;19921;-74
2022/01/28 06:43:05;;;;;;;;;;;1.70;99.90;;;;;;5043232;28;19921;-73
2022/01/28 06:45:31;;;;;;;;;;;1.70;99.90;;;;;;5043537;28;19928;-74
2022/01/28 06:47:58;;;;;;;;;;;1.70;99.90;;;;;;5044407;28;19925;-74
2022/01/28 06:50:24;;;;;;;;;;;1.70;99.90;;;;;;5043965;28;19936;-73
2022/01/28 06:52:51;;;;;;;;;;;1.70;99.90;;;;;;5044475;28;19928;-74
2022/01/28 06:55:18;;;;;;;;;;;1.70;99.90;;;;;;5043284;28;20131;-73
2022/01/28 06:57:45;;;;;;;;;;;1.70;99.90;;;;;;5043783;28;19929;-74
2022/01/28 07:00:13;;;;;;;;;;;1.70;99.90;;;;;;5043962;28;20152;-73
2022/01/28 07:02:40;;;;;;;;;;;1.70;99.90;;;;;;5043890;28;19921;-73
2022/01/28 07:05:07;;;;;;;;;;;1.70;99.90;;;;;;5043651;28;20140;-73
2022/01/28 07:07:36;;;;;;;;;;;1.70;99.90;;;;;;5045311;28;19921;-73
2022/01/28 07:10:02;;;;;;;;;;;1.70;99.90;;;;;;5044148;28;19963;-74
2022/01/28 07:12:29;;;;;;;;;;;1.60;99.90;;;;;;5044217;28;20245;-74
2022/01/28 07:14:55;;;;;;;;;;;1.60;99.90;;;;;;5043625;28;20113;-73
2022/01/28 07:17:23;;;;;;;;;;;1.60;99.90;;;;;;5044283;28;19922;-74
2022/01/28 07:19:50;;;;;;;;;;;1.70;99.90;;;;;;5044278;28;19927;-73
2022/01/28 07:22:16;;;;;;;;;;;1.70;99.90;;;;;;5043975;28;19921;-73
2022/01/28 07:24:43;;;;;;;;;;;1.70;99.90;;;;;;5043844;28;20116;-73
2022/01/28 07:27:10;;;;;;;;;;;1.60;99.90;;;;;;5043991;28;19921;-73
2022/01/28 07:29:37;;;;;;;;;;;1.60;99.90;;;;;;5043533;28;20217;-73
2022/01/28 07:32:04;;;;;;;;;;;1.60;99.90;;;;;;5043625;28;20121;-73
2022/01/28 07:34:32;;;;;;;;;;;1.70;99.90;;;;;;5042855;28;19921;-73
2022/01/28 07:36:58;;;;;;;;;;;1.70;99.90;;;;;;5043608;28;19952;-74
2022/01/28 07:39:25;;;;;;;;;;;1.70;99.90;;;;;;5043844;28;19921;-73
2022/01/28 07:41:52;;;;;;;;;;;1.70;99.90;;;;;;5043822;28;19921;-73
2022/01/28 07:44:18;;;;;;;;;;;1.70;99.90;;;;;;5043696;28;19925;-73
2022/01/28 07:46:45;;;;;;;;;;;1.70;99.90;;;;;;5043449;28;19921;-73
2022/01/28 07:49:11;;;;;;;;;;;1.70;99.90;;;;;;5043339;28;20235;-73
2022/01/28 07:51:40;;;;;;;;;;;1.70;99.90;;;;;;5034062;28;19928;-73
2022/01/28 07:54:07;;;;;;;;;;;1.70;99.90;;;;;;5039607;28;19925;-73
2022/01/28 07:56:33;;;;;;;;;;;1.80;99.90;;;;;;5023513;28;19937;-73
2022/01/28 07:59:00;;;;;;;;;;;1.80;99.90;;;;;;5028396;28;20204;-73
2022/01/28 08:01:27;;;;;;;;;;;1.90;99.90;;;;;;5043097;28;19943;-74
2022/01/28 08:03:53;;;;;;;;;;;1.90;99.90;;;;;;5042696;28;19944;-73
2022/01/28 08:06:20;;;;;;;;;;;1.90;99.90;;;;;;5033249;28;19921;-73
2022/01/28 08:08:48;;;;;;;;;;;1.90;99.90;;;;;;5038025;28;19921;-73
2022/01/28 08:11:14;;;;;;;;;;;2.00;99.90;;;;;;5042427;28;20204;-74
2022/01/28 08:13:41;;;;;;;;;;;2.00;99.90;;;;;;5030041;28;19921;-73
2022/01/28 08:16:07;;;;;;;;;;;2.00;99.90;;;;;;5023109;28;19925;-74
2022/01/28 08:18:34;;;;;;;;;;;2.00;99.90;;;;;;5026268;28;19925;-74
2022/01/28 08:21:00;;;;;;;;;;;2.10;99.90;;;;;;5023023;28;20113;-73
2022/01/28 08:23:27;;;;;;;;;;;2.10;99.90;;;;;;5023274;28;20168;-72
2022/01/28 08:25:55;;;;;;;;;;;2.10;99.90;;;;;;5038663;28;19921;-74
2022/01/28 08:28:22;;;;;;;;;;;2.10;99.90;;;;;;5044335;28;19921;-73
2022/01/28 08:30:48;;;;;;;;;;;2.10;99.90;;;;;;5043493;28;19930;-73
2022/01/28 08:33:15;;;;;;;;;;;2.10;99.90;;;;;;5042520;28;19928;-73
2022/01/28 08:35:42;;;;;;;;;;;2.10;99.90;;;;;;5034232;28;19936;-73
2022/01/28 08:38:14;;;;;;;;;;;2.10;99.90;;;;;;5026889;28;19921;-73
2022/01/28 08:40:41;;;;;;;;;;;2.10;99.90;;;;;;5025981;28;19925;-74
2022/01/28 08:43:09;;;;;;;;;;;2.10;99.90;;;;;;5042735;28;19921;-72
2022/01/28 08:45:35;;;;;;;;;;;2.10;99.90;;;;;;5042483;28;20317;-73
2022/01/28 08:48:02;;;;;;;;;;;2.20;99.90;;;;;;5042349;28;19921;-74
2022/01/28 08:50:29;;;;;;;;;;;2.20;99.90;;;;;;5042700;28;20221;-74
2022/01/28 08:52:55;;;;;;;;;;;2.20;99.90;;;;;;5038488;28;19984;-73
2022/01/28 08:55:22;;;;;;;;;;;2.20;99.90;;;;;;5022430;28;19928;-73
2022/01/28 08:57:48;;;;;;;;;;;2.20;99.90;;;;;;5022864;28;20124;-74
2022/01/28 09:00:18;;;;;;;;;;;2.20;99.90;;;;;;5040246;28;20120;-74
2022/01/28 09:02:44;;;;;;;;;;;2.20;99.90;;;;;;5042631;28;19972;-73
2022/01/28 09:05:11;;;;;;;;;;;2.30;99.90;;;;;;5043145;28;20227;-74
2022/01/28 09:07:38;;;;;;;;;;;2.30;99.90;;;;;;5046245;28;19992;-74
2022/01/28 09:10:10;;;;;;;;;;;2.20;99.90;;;;;;5045650;28;19928;-74
2022/01/28 09:12:39;;;;;;;;;;;2.30;99.90;;;;;;5045998;28;20124;-74
2022/01/28 09:15:06;;;;;;;;;;;2.30;99.90;;;;;;5045240;28;19956;-74
2022/01/28 09:17:34;;;;;;;;;;;2.30;99.90;;;;;;5045978;28;19928;-74
2022/01/28 09:20:02;;;;;;;;;;;2.30;99.90;;;;;;5045687;28;19921;-74
2022/01/28 09:22:28;;;;;;;;;;;2.30;99.90;;;;;;5045705;28;20169;-74
2022/01/28 09:24:55;;;;;;;;;;;2.30;99.90;;;;;;5045391;28;19921;-73
2022/01/28 09:27:21;;;;;;;;;;;2.30;99.90;;;;;;5045490;28;19921;-74
2022/01/28 09:29:48;;;;;;;;;;;2.40;99.90;;;;;;5038329;28;19930;-73
2022/01/28 09:32:16;;;;;;;;;;;2.50;99.90;;;;;;5025865;28;20000;-75
2022/01/28 09:34:44;;;;;;;;;;;2.40;99.90;;;;;;5025529;28;19956;-75
2022/01/28 09:37:12;;;;;;;;;;;2.40;99.90;;;;;;5025573;28;19936;-75
2022/01/28 09:39:43;;;;;;;;;;;2.40;99.90;;;;;;5025566;28;19922;-75
2022/01/28 09:42:12;;;;;;;;;;;2.30;99.90;;;;;;5025276;28;19922;-74
2022/01/28 09:44:39;;;;;;;;;;;2.40;99.90;;;;;;5025726;28;19921;-74
2022/01/28 09:47:06;;;;;;;;;;;2.40;99.90;;;;;;5025562;28;19921;-75
2022/01/28 09:49:33;;;;;;;;;;;2.50;99.90;;;;;;5025384;28;19989;-75
2022/01/28 09:52:01;;;;;;;;;;;2.50;99.90;;;;;;5025367;28;19975;-74
2022/01/28 09:54:27;;;;;;;;;;;2.60;99.90;;;;;;5025374;28;20170;-75
2022/01/28 09:56:54;;;;;;;;;;;2.60;99.90;;;;;;5025154;28;19929;-75
2022/01/28 09:59:20;;;;;;;;;;;2.60;99.90;;;;;;5035536;28;19921;-75
2022/01/28 10:01:48;;;;;;;;;;;2.70;99.90;;;;;;5045003;28;19927;-75
2022/01/28 10:04:17;;;;;;;;;;;2.80;99.90;;;;;;5044546;28;20117;-75
2022/01/28 10:06:44;;;;;;;;;;;2.90;99.90;;;;;;5044962;28;19968;-74
2022/01/28 10:09:13;;;;;;;;;;;2.90;99.90;;;;;;5040115;28;19921;-75
2022/01/28 10:11:42;;;;;;;;;;;3.00;99.90;;;;;;5044947;28;19921;-75
2022/01/28 10:14:13;;;;;;;;;;;3.10;99.90;;;;;;5044571;28;19921;-75
2022/01/28 10:16:39;;;;;;;;;;;3.10;99.90;;;;;;5044322;28;19921;-75
2022/01/28 10:19:07;;;;;;;;;;;3.10;99.90;;;;;;5044664;28;20116;-74
2022/01/28 10:21:36;;;;;;;;;;;3.10;99.90;;;;;;5044821;28;19928;-75
2022/01/28 10:24:08;;;;;;;;;;;3.00;99.90;;;;;;5041837;28;19929;-75
2022/01/28 10:26:37;;;;;;;;;;;3.00;99.90;;;;;;5044753;28;19921;-75
2022/01/28 10:29:05;;;;;;;;;;;3.00;99.90;;;;;;5044978;28;19927;-75
2022/01/28 10:31:52;;;;;;;;;;;3.00;99.90;;;;;;5044432;28;20086;-75
2022/01/28 10:34:26;;;;;;;;;;;2.90;99.90;;;;;;5038945;28;19921;-75
2022/01/28 10:37:07;;;;;;;;;;;2.90;99.90;;;;;;5044223;28;20201;-75
2022/01/28 10:39:39;;;;;;;;;;;2.90;99.90;;;;;;5042477;28;19925;-75
2022/01/28 10:42:08;;;;;;;;;;;2.90;99.90;;;;;;5044103;28;20116;-75
2022/01/28 10:44:37;;;;;;;;;;;3.00;99.90;;;;;;5043827;28;19921;-75
2022/01/28 10:47:06;;;;;;;;;;;3.00;99.90;;;;;;5044008;28;19964;-75
2022/01/28 10:49:33;;;;;;;;;;;3.00;99.90;;;;;;5044179;28;19921;-75
2022/01/28 10:52:04;;;;;;;;;;;3.00;99.90;;;;;;5048027;28;19927;-75
2022/01/28 10:54:31;;;;;;;;;;;3.00;99.90;;;;;;5043767;28;19967;-74
2022/01/28 10:56:58;;;;;;;;;;;3.00;99.90;;;;;;5033894;28;19930;-75
2022/01/28 10:59:27;;;;;;;;;;;3.00;99.90;;;;;;5034592;28;19921;-75
2022/01/28 11:01:54;;;;;;;;;;;3.00;99.90;;;;;;5043890;28;19925;-74
2022/01/28 11:04:21;;;;;;;;;;;3.10;99.90;;;;;;5043520;28;19921;-75
2022/01/28 11:06:48;;;;;;;;;;;3.10;99.90;;;;;;5043693;28;19920;-75
2022/01/28 11:09:16;;;;;;;;;;;3.00;99.90;;;;;;5037711;28;19927;-75
2022/01/28 11:11:42;;;;;;;;;;;3.00;99.90;;;;;;5034722;28;19928;-75
2022/01/28 11:14:09;;;;;;;;;;;3.10;99.90;;;;;;5024994;28;19921;-75
2022/01/28 11:16:37;;;;;;;;;;;3.20;99.90;;;;;;5024398;28;19922;-74
2022/01/28 11:19:04;;;;;;;;;;;3.20;99.90;;;;;;5032807;28;19927;-75
2022/01/28 11:21:34;;;;;;;;;;;3.20;99.90;;;;;;5043472;28;19940;-75
2022/01/28 11:24:06;;;;;;;;;;;3.30;99.90;;;;;;5043704;28;19925;-75
2022/01/28 11:26:38;;;;;;;;;;;3.30;99.90;;;;;;5042963;28;19936;-75
2022/01/28 11:29:11;;;;;;;;;;;3.20;99.90;;;;;;5041319;28;20213;-75
2022/01/28 11:31:43;;;;;;;;;;;3.10;99.90;;;;;;5036158;28;19925;-75
2022/01/28 11:34:20;;;;;;;;;;;3.20;99.90;;;;;;5023365;28;19922;-75
2022/01/28 11:36:47;;;;;;;;;;;3.20;99.90;;;;;;5032032;28;19921;-75
2022/01/28 11:39:21;;;;;;;;;;;3.20;99.90;;;;;;5043538;28;19944;-75
2022/01/28 11:41:59;;;;;;;;;;;3.20;99.90;;;;;;5043151;28;19920;-75
2022/01/28 11:44:47;;;;;;;;;;;3.20;99.90;;;;;;5043131;28;19928;-75
2022/01/28 11:47:22;;;;;;;;;;;3.10;99.90;;;;;;5043013;28;19921;-76
2022/01/28 11:49:52;;;;;;;;;;;3.10;99.90;;;;;;5043490;28;19925;-75
2022/01/28 11:52:24;;;;;;;;;;;3.00;99.90;;;;;;5043021;28;20208;-72
2022/01/28 11:54:51;;;;;;;;;;;3.00;99.90;;;;;;5042309;28;19959;-74
2022/01/28 11:57:18;;;;;;;;;;;3.00;99.90;;;;;;5043043;28;19921;-75
2022/01/28 11:59:46;;;;;;;;;;;3.00;99.90;;;;;;5025419;28;19933;-75
2022/01/28 12:02:14;;;;;;;;;;;2.90;99.90;;;;;;5023048;28;19941;-74
2022/01/28 12:04:43;;;;;;;;;;;2.80;99.90;;;;;;5034205;28;19921;-75
2022/01/28 12:07:13;;;;;;;;;;;2.80;99.90;;;;;;5037581;28;20185;-75
2022/01/28 12:09:40;;;;;;;;;;;2.60;99.90;;;;;;5029380;28;19929;-74
2022/01/28 12:12:09;;;;;;;;;;;2.50;99.90;;;;;;5033668;28;19927;-75
2022/01/28 12:15:02;;;;;;;;;;;2.40;99.90;;;;;;5041620;28;19984;-74
2022/01/28 12:17:39;;;;;;;;;;;2.40;99.90;;;;;;5039956;28;20181;-73
2022/01/28 12:20:19;;;;;;;;;;;2.40;99.90;;;;;;5042062;28;19925;-74
2022/01/28 12:23:02;;;;;;;;;;;2.40;99.90;;;;;;5041697;28;19933;-74
2022/01/28 12:25:47;;;;;;;;;;;2.40;99.90;;;;;;5043028;28;20112;-74
2022/01/28 12:28:14;;;;;;;;;;;2.50;99.90;;;;;;5038366;28;19943;-73
2022/01/28 12:30:42;;;;;;;;;;;2.50;99.90;;;;;;5042846;28;20139;-74
2022/01/28 12:33:09;;;;;;;;;;;2.60;99.90;;;;;;5042504;28;20252;-73
2022/01/28 12:35:38;;;;;;;;;;;2.60;99.90;;;;;;5042325;28;20231;-73
2022/01/28 12:38:05;;;;;;;;;;;2.70;99.90;;;;;;5039676;28;19921;-74
2022/01/28 12:40:36;;;;;;;;;;;2.80;99.90;;;;;;5042211;28;19921;-74
2022/01/28 12:43:03;;;;;;;;;;;2.80;99.90;;;;;;5046319;28;19921;-74
2022/01/28 12:45:30;;;;;;;;;;;2.90;99.90;;;;;;5045988;28;20220;-75
2022/01/28 12:47:56;;;;;;;;;;;2.90;99.90;;;;;;5053390;28;20235;-73
2022/01/28 12:50:24;;;;;;;;;;;2.90;99.90;;;;;;5048136;28;19921;-74
2022/01/28 12:52:52;;;;;;;;;;;2.90;99.90;;;;;;5039316;28;19993;-74
2022/01/28 12:55:18;;;;;;;;;;;2.80;99.90;;;;;;5039640;28;20235;-74
2022/01/28 12:57:48;;;;;;;;;;;2.70;99.90;;;;;;5045448;28;19921;-74
2022/01/28 13:00:15;;;;;;;;;;;2.80;99.90;;;;;;5043169;28;19936;-74
2022/01/28 13:02:44;;;;;;;;;;;2.80;99.90;;;;;;5046307;28;19927;-75
2022/01/28 13:05:15;;;;;;;;;;;2.80;99.90;;;;;;5045754;28;19927;-74
2022/01/28 13:10:29;;;;;;;;;;;3.00;99.90;;;;;;5040572;28;20224;-73
2022/01/28 13:13:03;;;;;;;;;;;3.10;99.90;;;;;;5026253;28;19928;-74
2022/01/28 13:15:30;;;;;;;;;;;3.10;99.90;;;;;;5039159;28;19983;-74
2022/01/28 13:17:57;;;;;;;;;;;3.10;99.90;;;;;;5045878;28;19928;-74
2022/01/28 13:20:25;;;;;;;;;;;3.10;99.90;;;;;;5026255;28;19928;-73
2022/01/28 13:22:53;;;;;;;;;;;3.00;99.90;;;;;;5025285;28;20236;-73
2022/01/28 13:25:21;;;;;;;;;;;3.00;99.90;;;;;;5034656;28;19929;-73
2022/01/28 13:27:53;;;;;;;;;;;2.90;99.90;;;;;;5045987;28;19963;-73
2022/01/28 13:30:19;;;;;;;;;;;2.80;99.90;;;;;;5044726;28;19924;-74
2022/01/28 13:32:47;;;;;;;;;;;2.80;99.90;;;;;;5045513;28;20204;-73
2022/01/28 13:35:15;;;;;;;;;;;2.80;99.90;;;;;;5035511;28;19921;-72
2022/01/28 13:37:42;;;;;;;;;;;2.80;99.90;;;;;;5025781;28;20090;-73
2022/01/28 13:40:10;;;;;;;;;;;2.80;99.90;;;;;;5025856;28;19989;-73
2022/01/28 13:42:37;;;;;;;;;;;2.80;99.90;;;;;;5046135;28;19983;-74
2022/01/28 13:45:07;;;;;;;;;;;2.90;99.90;;;;;;5042762;28;19956;-73
2022/01/28 13:47:53;;;;;;;;;;;2.90;99.90;;;;;;5045288;28;19921;-73
2022/01/28 13:50:23;;;;;;;;;;;3.00;99.90;;;;;;5045277;28;19964;-73
2022/01/28 13:52:54;;;;;;;;;;;3.00;99.90;;;;;;5045375;28;19921;-73
2022/01/28 13:55:32;;;;;;;;;;;3.00;99.90;;;;;;5044227;28;19967;-72
2022/01/28 13:58:03;;;;;;;;;;;3.00;99.90;;;;;;5045038;28;19921;-73
2022/01/28 14:00:38;;;;;;;;;;;3.10;99.90;;;;;;5041271;28;19921;-73
2022/01/28 14:03:04;;;;;;;;;;;3.10;99.90;;;;;;5044919;28;19959;-73
2022/01/28 14:05:46;;;;;;;;;;;3.10;99.90;;;;;;5046577;28;20213;-73
2022/01/28 14:08:12;;;;;;;;;;;3.10;99.90;;;;;;5063864;28;19933;-73
2022/01/28 14:10:39;;;;;;;;;;;3.10;99.90;;;;;;5064820;28;19927;-73
2022/01/28 14:13:18;;;;;;;;;;;3.20;99.90;;;;;;5064552;28;20204;-73
2022/01/28 14:16:01;;;;;;;;;;;3.20;99.90;;;;;;5045601;28;19932;-73
2022/01/28 14:18:27;;;;;;;;;;;3.20;99.90;;;;;;5025210;28;20259;-74
2022/01/28 14:20:54;;;;;;;;;;;3.20;99.90;;;;;;5024748;28;20213;-77
2022/01/28 14:23:22;;;;;;;;;;;3.20;99.90;;;;;;5024171;28;19921;-73
2022/01/28 14:25:49;;;;;;;;;;;3.20;99.90;;;;;;5025053;28;19933;-73
2022/01/28 14:28:37;;;;;;;;;;;3.20;99.90;;;;;;5025287;28;19925;-73
2022/01/28 14:31:08;;;;;;;;;;;3.30;99.90;;;;;;5024756;28;20177;-72
2022/01/28 14:33:35;;;;;;;;;;;3.20;99.90;;;;;;5024769;28;19921;-72
2022/01/28 14:36:02;;;;;;;;;;;3.30;99.90;;;;;;5024279;28;19929;-72
2022/01/28 14:38:28;;;;;;;;;;;3.30;99.90;;;;;;5024816;28;19921;-71
2022/01/28 14:40:55;;;;;;;;;;;3.30;99.90;;;;;;5025092;28;19922;-72
2022/01/28 14:43:21;;;;;;;;;;;3.30;99.90;;;;;;5024619;28;20224;-72
2022/01/28 14:45:48;;;;;;;;;;;3.30;99.90;;;;;;5024706;28;19921;-72
2022/01/28 14:48:20;;;;;;;;;;;3.20;99.90;;;;;;5024336;28;20202;-72
2022/01/28 14:50:47;;;;;;;;;;;3.30;99.90;;;;;;5024770;28;19985;-72
2022/01/28 14:53:14;;;;;;;;;;;3.20;99.90;;;;;;5024755;28;19928;-71
2022/01/28 14:55:42;;;;;;;;;;;3.20;99.90;;;;;;5024109;28;19928;-71
2022/01/28 14:58:09;;;;;;;;;;;3.20;99.90;;;;;;5025140;28;20181;-72
2022/01/28 15:00:35;;;;;;;;;;;3.20;99.90;;;;;;5044330;28;19927;-72
2022/01/28 15:03:02;;;;;;;;;;;3.30;99.90;;;;;;5026096;28;20231;-71
2022/01/28 15:05:30;;;;;;;;;;;3.30;99.90;;;;;;5024227;28;19921;-72
2022/01/28 15:07:57;;;;;;;;;;;3.20;99.90;;;;;;5030309;28;19921;-72
2022/01/28 15:10:28;;;;;;;;;;;3.20;99.90;;;;;;5041481;28;19921;-71
2022/01/28 15:12:54;;;;;;;;;;;3.20;99.90;;;;;;5033462;28;20276;-70
2022/01/28 15:15:21;;;;;;;;;;;3.20;99.90;;;;;;5041406;28;19928;-72
2022/01/28 15:17:52;;;;;;;;;;;3.20;99.90;;;;;;5022555;28;19921;-70
2022/01/28 15:20:18;;;;;;;;;;;3.30;99.90;;;;;;5024348;28;19928;-70
2022/01/28 15:22:47;;;;;;;;;;;3.20;99.90;;;;;;5023181;28;20115;-70
2022/01/28 15:25:14;;;;;;;;;;;3.20;99.90;;;;;;5024095;28;19921;-70
2022/01/28 15:27:46;;;;;;;;;;;3.20;99.90;;;;;;5035868;28;19921;-70
2022/01/28 15:30:27;;;;;;;;;;;3.20;99.90;;;;;;5025912;28;19980;-70